Time;durP1;ratioP1;P1;durP2;ratioP2;P2;SDS_P1;SDS_P2;PMS_P1;PMS_P2;Temp;Humidity;BMP_temperature;BMP_pressure;BME280_temperature;BME280_humidity;BME280_pressure;Samples;Min_cycle;Max_cycle;Signal;HPM_P1;HPM_P2
2022/05/26 00:01:39;;;;;;;2.20;2.00;;;19.40;75.40;;;;;;4948919;28;20893;-70
2022/05/26 00:04:05;;;;;;;2.90;2.27;;;19.40;75.40;;;;;;4943760;28;20708;-70
2022/05/26 00:06:31;;;;;;;3.23;2.10;;;19.40;75.60;;;;;;4939980;28;20991;-71
2022/05/26 00:08:57;;;;;;;2.90;2.27;;;19.50;75.80;;;;;;4947000;28;20867;-70
2022/05/26 00:11:28;;;;;;;4.63;2.10;;;19.50;75.30;;;;;;4946459;28;20439;-71
2022/05/26 00:13:55;;;;;;;3.10;2.17;;;19.40;75.50;;;;;;4945612;28;20538;-70
2022/05/26 00:16:20;;;;;;;2.13;1.90;;;19.40;76.20;;;;;;4944261;28;20485;-71
2022/05/26 00:18:47;;;;;;;4.60;2.20;;;19.50;76.00;;;;;;4943171;28;20510;-70
2022/05/26 00:21:13;;;;;;;2.47;2.20;;;19.40;75.90;;;;;;4943873;28;21034;-71
2022/05/26 00:23:39;;;;;;;2.20;2.00;;;19.40;76.50;;;;;;4943478;28;20526;-70
2022/05/26 00:26:05;;;;;;;3.30;2.00;;;19.40;76.50;;;;;;4945446;28;20526;-72
2022/05/26 00:28:31;;;;;;;2.57;2.10;;;19.40;76.50;;;;;;4947624;28;20207;-70
2022/05/26 00:31:02;;;;;;;3.40;2.00;;;19.30;77.00;;;;;;4947463;28;20175;-71
2022/05/26 00:33:28;;;;;;;2.40;2.20;;;19.30;77.30;;;;;;4930930;28;20818;-71
2022/05/26 00:35:54;;;;;;;2.90;1.90;;;19.30;77.70;;;;;;4945717;28;20442;-72
2022/05/26 00:38:20;;;;;;;2.30;2.10;;;19.40;77.70;;;;;;4944906;28;20203;-69
2022/05/26 00:40:46;;;;;;;2.13;1.93;;;19.40;77.70;;;;;;4944542;28;20804;-69
2022/05/26 00:43:13;;;;;;;2.97;2.23;;;19.20;78.00;;;;;;4941610;28;20215;-68
2022/05/26 00:45:55;;;;;;;2.50;2.30;;;19.20;78.30;;;;;;4942133;28;20486;-68
2022/05/26 00:48:26;;;;;;;2.43;2.10;;;19.20;78.40;;;;;;4943255;28;20955;-69
2022/05/26 00:50:55;;;;;;;2.73;2.03;;;19.20;78.40;;;;;;4944403;28;20474;-69
2022/05/26 00:53:34;;;;;;;2.63;2.10;;;19.20;78.70;;;;;;4941867;28;20530;-70
2022/05/26 00:56:18;;;;;;;7.47;2.00;;;19.20;78.50;;;;;;4928068;28;20451;-69
2022/05/26 00:58:49;;;;;;;2.50;2.20;;;19.20;78.70;;;;;;4944167;28;20533;-68
2022/05/26 01:01:17;;;;;;;2.30;2.10;;;19.10;78.80;;;;;;4943392;28;21180;-68
2022/05/26 01:03:44;;;;;;;4.00;2.00;;;19.10;78.80;;;;;;4941233;28;20478;-68
2022/05/26 01:06:28;;;;;;;2.53;2.10;;;19.10;79.00;;;;;;4945852;28;20956;-68
2022/05/26 01:08:59;;;;;;;2.40;2.20;;;19.10;78.80;;;;;;4947841;28;20451;-69
2022/05/26 01:11:30;;;;;;;2.20;2.00;;;19.00;79.00;;;;;;4943985;28;20470;-69
2022/05/26 01:14:00;;;;;;;2.33;2.13;;;18.90;79.40;;;;;;4944157;28;20834;-70
2022/05/26 01:16:32;;;;;;;2.20;2.00;;;18.90;79.40;;;;;;4943719;28;20445;-69
2022/05/26 01:19:16;;;;;;;2.97;2.30;;;18.90;79.40;;;;;;4925805;28;20442;-69
2022/05/26 01:21:49;;;;;;;2.10;1.90;;;18.90;79.70;;;;;;4943657;28;20468;-69
2022/05/26 01:25:13;;;;;;;2.23;2.00;;;18.90;79.40;;;;;;4946165;28;21017;-69
2022/05/26 01:27:45;;;;;;;2.63;2.10;;;18.90;79.60;;;;;;4904030;28;20466;-68
2022/05/26 01:30:50;;;;;;;2.20;2.00;;;18.80;79.50;;;;;;4944171;28;20450;-69
2022/05/26 01:33:27;;;;;;;2.23;1.97;;;18.80;79.70;;;;;;4942729;28;20435;-69
2022/05/26 01:36:19;;;;;;;5.80;2.30;;;18.90;79.80;;;;;;4944774;28;20442;-69
2022/05/26 01:38:56;;;;;;;2.83;2.27;;;18.80;80.00;;;;;;4940370;28;20558;-69
2022/05/26 01:41:52;;;;;;;2.60;1.90;;;18.80;80.30;;;;;;4945064;28;20478;-69
2022/05/26 01:44:52;;;;;;;3.30;2.10;;;18.80;80.60;;;;;;4943605;28;20509;-70
2022/05/26 01:47:38;;;;;;;2.43;2.07;;;18.80;81.00;;;;;;4942660;28;20473;-70
2022/05/26 01:50:44;;;;;;;4.13;2.47;;;18.70;81.30;;;;;;4945494;28;20809;-70
2022/05/26 01:53:29;;;;;;;2.20;2.00;;;18.80;81.70;;;;;;4943795;28;20577;-70
2022/05/26 01:56:25;;;;;;;3.30;2.00;;;18.80;81.60;;;;;;4944820;28;20446;-69
2022/05/26 01:59:09;;;;;;;3.30;2.20;;;18.70;81.50;;;;;;4944143;28;20561;-70
2022/05/26 02:01:47;;;;;;;6.37;2.33;;;18.70;82.60;;;;;;4945596;28;20467;-70
2022/05/26 02:04:21;;;;;;;2.50;2.30;;;18.80;81.90;;;;;;4943683;28;20446;-69
2022/05/26 02:06:53;;;;;;;5.20;2.63;;;18.80;81.60;;;;;;4944384;28;20437;-69
2022/05/26 02:09:28;;;;;;;2.10;1.90;;;18.80;81.80;;;;;;4942854;28;20526;-69
2022/05/26 02:12:05;;;;;;;2.53;2.10;;;18.80;82.00;;;;;;4943889;28;20446;-69
2022/05/26 02:14:39;;;;;;;3.70;2.40;;;18.80;82.20;;;;;;4943796;28;20469;-69
2022/05/26 02:17:22;;;;;;;2.53;2.13;;;18.90;82.10;;;;;;4944491;28;20469;-69
2022/05/26 02:19:56;;;;;;;5.20;1.93;;;18.80;82.20;;;;;;4945081;28;20526;-69
2022/05/26 02:22:49;;;;;;;3.13;2.10;;;18.90;82.60;;;;;;4941997;28;21113;-70
2022/05/26 02:25:19;;;;;;;2.53;2.10;;;18.80;83.00;;;;;;4941696;28;20482;-69
2022/05/26 02:27:48;;;;;;;3.10;2.10;;;18.80;83.40;;;;;;4944249;28;20466;-69
2022/05/26 02:30:13;;;;;;;4.00;2.13;;;18.80;83.60;;;;;;4943651;28;20444;-69
2022/05/26 02:32:52;;;;;;;2.83;2.00;;;18.70;84.00;;;;;;4942305;28;20453;-68
2022/05/26 02:35:22;;;;;;;3.30;2.00;;;18.70;84.20;;;;;;4943696;28;20187;-69
2022/05/26 02:37:52;;;;;;;2.17;1.97;;;18.70;84.60;;;;;;4945029;28;20466;-69
2022/05/26 02:40:17;;;;;;;3.07;2.20;;;18.70;84.70;;;;;;4945208;28;20481;-70
2022/05/26 02:42:47;;;;;;;2.40;2.00;;;18.60;84.60;;;;;;4944018;28;20483;-70
2022/05/26 02:45:24;;;;;;;2.73;2.40;;;18.60;85.20;;;;;;4944748;28;21032;-70
2022/05/26 02:48:19;;;;;;;2.73;2.10;;;18.50;86.20;;;;;;4942274;28;20490;-71
2022/05/26 02:51:03;;;;;;;2.50;2.30;;;18.50;85.70;;;;;;4944037;28;20943;-70
2022/05/26 02:53:43;;;;;;;2.10;1.90;;;18.40;86.00;;;;;;4942800;28;20530;-71
2022/05/26 02:56:46;;;;;;;2.97;2.10;;;18.30;86.20;;;;;;4944518;28;20501;-71
2022/05/26 02:59:22;;;;;;;2.20;2.00;;;18.40;86.60;;;;;;4928245;28;20864;-71
2022/05/26 03:01:55;;;;;;;3.83;2.20;;;18.40;87.00;;;;;;4945727;28;20844;-72
2022/05/26 03:04:36;;;;;;;3.60;2.47;;;18.40;86.90;;;;;;4941633;28;20474;-72
2022/05/26 03:07:08;;;;;;;2.20;2.00;;;18.30;87.20;;;;;;4943978;28;20458;-71
2022/05/26 03:09:35;;;;;;;4.17;2.00;;;18.20;87.90;;;;;;4943793;28;20477;-70
2022/05/26 03:12:01;;;;;;;3.20;1.90;;;18.30;88.40;;;;;;4943633;28;20462;-70
2022/05/26 03:14:27;;;;;;;3.00;2.50;;;18.20;88.90;;;;;;4942937;28;20469;-70
2022/05/26 03:16:53;;;;;;;5.30;2.10;;;18.10;89.20;;;;;;4945741;28;20211;-70
2022/05/26 03:19:19;;;;;;;3.77;2.20;;;18.10;89.50;;;;;;4949632;28;20199;-71
2022/05/26 03:21:45;;;;;;;6.13;2.50;;;18.20;89.80;;;;;;4949632;28;20473;-71
2022/05/26 03:24:12;;;;;;;4.77;2.27;;;18.10;90.10;;;;;;4944401;28;20948;-71
2022/05/26 03:26:38;;;;;;;2.30;2.00;;;18.10;90.20;;;;;;4947302;28;20445;-71
2022/05/26 03:29:05;;;;;;;4.63;2.67;;;18.00;90.30;;;;;;4948306;28;20529;-71
2022/05/26 03:31:33;;;;;;;2.47;2.10;;;18.00;90.60;;;;;;4946320;28;20198;-71
2022/05/26 03:42:12;;;;;;;1.80;1.70;;;17.90;90.80;;;;;;4945671;28;20522;-70
2022/05/26 03:44:38;;;;;;;2.53;2.10;;;17.80;91.30;;;;;;4946500;28;20470;-70
2022/05/26 03:47:04;;;;;;;2.40;2.00;;;17.70;91.50;;;;;;4947094;28;20578;-70
2022/05/26 03:49:30;;;;;;;3.63;2.07;;;17.70;91.60;;;;;;4947814;28;20884;-71
2022/05/26 03:51:57;;;;;;;2.40;1.90;;;17.80;91.60;;;;;;4945911;28;20525;-70
2022/05/26 03:54:23;;;;;;;2.20;2.00;;;17.80;91.50;;;;;;4943699;28;20179;-70
2022/05/26 03:56:49;;;;;;;3.03;1.90;;;17.80;91.80;;;;;;4946102;28;20482;-71
2022/05/26 03:59:14;;;;;;;2.43;2.00;;;17.80;91.70;;;;;;4948861;28;20477;-71
2022/05/26 04:01:40;;;;;;;2.80;2.17;;;17.80;91.80;;;;;;4947349;28;20262;-71
2022/05/26 04:04:06;;;;;;;6.03;2.10;;;17.80;91.90;;;;;;4927140;28;20238;-71
2022/05/26 04:06:32;;;;;;;3.40;2.00;;;17.80;91.80;;;;;;4946639;28;20187;-71
2022/05/26 04:08:58;;;;;;;2.77;2.00;;;17.80;92.00;;;;;;4944910;28;20451;-70
2022/05/26 04:11:24;;;;;;;2.67;2.00;;;17.80;92.10;;;;;;4946397;28;20538;-70
2022/05/26 04:13:51;;;;;;;3.60;1.90;;;17.80;92.10;;;;;;4944982;28;20200;-71
2022/05/26 04:16:17;;;;;;;2.80;2.00;;;17.80;92.30;;;;;;4949366;28;20183;-71
2022/05/26 04:18:43;;;;;;;2.47;2.23;;;17.90;92.10;;;;;;4944800;28;21335;-69
2022/05/26 04:21:10;;;;;;;2.83;1.80;;;17.90;92.20;;;;;;4946843;28;20450;-69
2022/05/26 04:23:36;;;;;;;3.13;2.27;;;17.80;92.30;;;;;;4946155;28;20203;-70
2022/05/26 04:26:03;;;;;;;4.73;2.20;;;17.80;92.40;;;;;;4945762;28;20518;-69
2022/05/26 04:28:29;;;;;;;2.23;2.03;;;17.90;92.60;;;;;;4945625;28;20619;-70
2022/05/26 04:30:55;;;;;;;2.10;1.90;;;18.00;92.50;;;;;;4945968;28;20447;-69
2022/05/26 04:33:20;;;;;;;2.20;2.00;;;18.00;92.60;;;;;;4944081;28;20332;-70
2022/05/26 04:35:46;;;;;;;2.30;2.10;;;17.90;92.70;;;;;;4945760;28;20187;-69
2022/05/26 04:38:11;;;;;;;5.43;2.03;;;18.00;92.80;;;;;;4948264;28;20207;-70
2022/05/26 04:40:39;;;;;;;6.50;2.03;;;18.10;93.00;;;;;;4945494;28;20221;-70
2022/05/26 04:43:05;;;;;;;2.27;1.93;;;18.20;92.90;;;;;;4944199;28;20249;-69
2022/05/26 04:45:31;;;;;;;3.73;1.80;;;18.10;93.00;;;;;;4945008;28;20693;-69
2022/05/26 04:47:57;;;;;;;3.63;2.07;;;18.10;93.00;;;;;;4943730;28;20490;-70
2022/05/26 04:50:23;;;;;;;2.43;2.00;;;18.10;93.00;;;;;;4944330;28;20497;-70
2022/05/26 04:52:49;;;;;;;3.03;2.00;;;17.90;93.20;;;;;;4946047;28;20620;-69
2022/05/26 04:55:14;;;;;;;2.63;2.20;;;18.00;93.50;;;;;;4943776;28;20470;-69
2022/05/26 04:57:40;;;;;;;3.13;2.57;;;18.00;93.50;;;;;;4946349;28;20241;-68
2022/05/26 05:00:10;;;;;;;3.40;2.20;;;18.00;93.90;;;;;;4945834;28;20191;-71
2022/05/26 05:02:36;;;;;;;2.50;2.30;;;18.00;94.00;;;;;;4945022;28;20586;-69
2022/05/26 05:05:03;;;;;;;2.83;2.17;;;17.90;94.20;;;;;;4941636;28;22376;-71
2022/05/26 05:07:29;;;;;;;2.30;2.10;;;17.80;94.50;;;;;;4944515;28;20463;-71
2022/05/26 05:09:55;;;;;;;4.67;2.33;;;17.90;94.70;;;;;;4945004;28;20439;-71
2022/05/26 05:12:21;;;;;;;3.00;2.13;;;17.90;94.70;;;;;;4944427;28;20274;-71
2022/05/26 05:14:49;;;;;;;3.80;2.30;;;18.00;94.70;;;;;;4944890;28;20218;-70
2022/05/26 05:17:17;;;;;;;2.57;2.10;;;18.10;95.00;;;;;;4945048;28;20475;-70
2022/05/26 05:19:43;;;;;;;3.27;2.20;;;18.10;95.40;;;;;;4944148;28;20466;-70
2022/05/26 05:22:31;;;;;;;2.57;2.20;;;17.90;95.80;;;;;;4945150;28;21097;-70
2022/05/26 05:25:06;;;;;;;3.80;2.63;;;18.00;96.00;;;;;;4944525;28;20451;-70
2022/05/26 05:27:41;;;;;;;4.43;1.97;;;18.10;96.20;;;;;;4943112;28;20466;-71
2022/05/26 05:30:14;;;;;;;5.03;1.90;;;18.10;96.30;;;;;;4944956;28;20456;-71
2022/05/26 05:33:02;;;;;;;2.20;2.00;;;18.10;96.70;;;;;;4942925;28;20454;-71
2022/05/26 05:35:38;;;;;;;2.53;2.03;;;18.10;96.80;;;;;;4933723;28;20451;-70
2022/05/26 05:38:04;;;;;;;3.30;2.50;;;18.10;97.00;;;;;;4944867;28;20477;-71
2022/05/26 05:40:30;;;;;;;2.20;2.00;;;18.20;97.20;;;;;;4943566;28;20444;-71
2022/05/26 05:42:56;;;;;;;2.20;2.00;;;18.10;97.40;;;;;;4943001;28;21002;-71
2022/05/26 05:45:21;;;;;;;3.53;2.20;;;18.10;97.70;;;;;;4944462;28;21019;-71
2022/05/26 05:47:47;;;;;;;7.27;2.43;;;18.20;97.80;;;;;;4925617;28;20580;-71
2022/05/26 05:50:13;;;;;;;2.57;2.00;;;18.30;97.60;;;;;;4944392;28;20302;-71
2022/05/26 05:52:38;;;;;;;3.00;2.20;;;18.30;97.60;;;;;;4945891;28;20446;-71
2022/05/26 05:55:05;;;;;;;4.97;2.60;;;18.20;97.60;;;;;;4942819;28;20221;-71
2022/05/26 05:57:31;;;;;;;2.53;2.33;;;18.30;97.80;;;;;;4944935;28;20683;-69
2022/05/26 05:59:56;;;;;;;3.97;3.07;;;18.30;97.90;;;;;;4944179;28;20486;-69
2022/05/26 06:02:22;;;;;;;2.40;2.20;;;18.20;97.70;;;;;;4946063;28;20489;-69
2022/05/26 06:04:48;;;;;;;2.80;1.97;;;18.20;98.10;;;;;;4944463;28;20202;-72
2022/05/26 06:07:21;;;;;;;2.93;2.60;;;18.30;98.00;;;;;;4943487;28;20462;-70
2022/05/26 06:09:48;;;;;;;3.67;2.50;;;18.30;98.20;;;;;;4942056;28;20187;-71
2022/05/26 06:12:14;;;;;;;2.40;2.20;;;18.40;98.40;;;;;;4941220;28;20492;-71
2022/05/26 06:14:42;;;;;;;2.10;1.90;;;18.40;98.30;;;;;;4942240;28;20552;-72
2022/05/26 06:17:08;;;;;;;2.80;2.50;;;18.40;98.50;;;;;;4943354;28;20532;-71
2022/05/26 06:19:35;;;;;;;3.03;2.27;;;18.40;98.70;;;;;;4943929;28;20485;-71
2022/05/26 06:22:15;;;;;;;2.77;2.53;;;18.40;98.80;;;;;;4942996;28;20478;-70
2022/05/26 06:24:41;;;;;;;4.90;2.23;;;18.40;98.80;;;;;;4942371;28;20434;-70
2022/05/26 06:29:54;;;;;;;2.60;2.40;;;18.50;98.70;;;;;;4944435;28;20501;-69
2022/05/26 06:37:51;;;;;;;2.63;2.37;;;18.60;98.50;;;;;;4944989;28;20486;-70
2022/05/26 06:40:17;;;;;;;5.93;2.83;;;18.60;98.50;;;;;;4948469;28;20430;-70
2022/05/26 06:42:47;;;;;;;3.87;2.23;;;18.80;98.40;;;;;;4925584;28;21097;-70
2022/05/26 06:45:18;;;;;;;2.63;2.10;;;18.90;99.00;;;;;;4944376;28;20645;-68
2022/05/26 06:47:44;;;;;;;3.00;2.50;;;18.90;98.10;;;;;;4942781;28;20980;-69
2022/05/26 06:50:10;;;;;;;3.30;2.20;;;18.90;98.00;;;;;;4946049;28;20561;-69
2022/05/26 06:52:37;;;;;;;3.83;2.20;;;18.80;98.30;;;;;;4946694;28;20274;-69
2022/05/26 06:55:05;;;;;;;3.43;2.33;;;18.80;98.30;;;;;;4947955;28;20450;-69
2022/05/26 06:57:30;;;;;;;2.30;2.10;;;18.80;97.90;;;;;;4946994;28;20474;-69
2022/05/26 06:59:56;;;;;;;3.37;2.40;;;18.90;98.10;;;;;;4948561;28;21153;-69
2022/05/26 07:02:22;;;;;;;2.43;2.23;;;18.90;97.90;;;;;;4946412;28;20612;-69
2022/05/26 07:04:47;;;;;;;2.50;2.30;;;19.00;98.00;;;;;;4946308;28;20202;-69
2022/05/26 07:07:14;;;;;;;3.33;2.40;;;19.10;97.90;;;;;;4947870;28;20836;-73
2022/05/26 07:09:40;;;;;;;7.43;2.37;;;19.00;97.60;;;;;;4948523;28;20263;-71
2022/05/26 07:12:06;;;;;;;3.07;2.30;;;18.90;97.70;;;;;;4945845;28;20442;-71
2022/05/26 07:14:32;;;;;;;3.03;2.70;;;18.90;98.10;;;;;;4947107;28;20318;-71
2022/05/26 07:17:00;;;;;;;3.73;2.70;;;18.80;98.00;;;;;;4946634;28;20506;-72
2022/05/26 07:19:26;;;;;;;2.83;2.47;;;18.80;98.20;;;;;;4949134;28;20195;-71
2022/05/26 07:21:52;;;;;;;3.23;2.40;;;18.90;98.40;;;;;;4946433;28;20458;-72
2022/05/26 07:24:20;;;;;;;4.10;2.10;;;19.00;98.40;;;;;;4945613;28;20641;-72
2022/05/26 07:26:47;;;;;;;6.47;2.50;;;19.10;98.50;;;;;;4946825;28;20202;-71
2022/05/26 07:29:13;;;;;;;2.67;2.23;;;19.10;98.10;;;;;;4946930;28;20439;-72
2022/05/26 07:31:38;;;;;;;2.97;2.63;;;19.10;98.10;;;;;;4947787;28;21116;-71
2022/05/26 07:34:04;;;;;;;6.10;2.47;;;19.20;98.20;;;;;;4945151;28;20446;-71
2022/05/26 07:42:02;;;;;;;4.43;2.47;;;19.10;97.70;;;;;;4945576;28;20621;-70
2022/05/26 07:44:31;;;;;;;3.90;2.50;;;19.10;98.10;;;;;;4948139;28;20478;-72
2022/05/26 07:46:56;;;;;;;2.63;2.27;;;19.20;98.30;;;;;;4945505;28;20466;-72
2022/05/26 07:49:23;;;;;;;3.40;2.93;;;19.30;98.60;;;;;;4946639;28;20459;-71
2022/05/26 07:51:48;;;;;;;3.73;2.40;;;19.10;98.20;;;;;;4946498;28;20645;-70
2022/05/26 07:54:14;;;;;;;2.60;2.20;;;19.10;98.20;;;;;;4944729;28;20439;-70
2022/05/26 07:56:40;;;;;;;5.50;2.17;;;19.10;98.40;;;;;;4947321;28;20191;-70
2022/05/26 07:59:07;;;;;;;7.20;2.60;;;19.20;98.40;;;;;;4947766;28;20195;-70
2022/05/26 08:01:34;;;;;;;2.97;2.40;;;19.30;98.20;;;;;;4946622;28;20222;-71
2022/05/26 08:04:00;;;;;;;3.10;2.10;;;19.20;98.00;;;;;;4946086;28;20960;-71
2022/05/26 08:06:26;;;;;;;3.10;2.13;;;19.30;98.40;;;;;;4942990;28;20475;-73
2022/05/26 08:08:52;;;;;;;3.50;2.33;;;19.20;98.50;;;;;;4946479;28;20509;-70
2022/05/26 08:11:18;;;;;;;2.73;2.20;;;19.30;98.60;;;;;;4946829;28;20230;-72
2022/05/26 08:13:43;;;;;;;2.40;2.20;;;19.30;98.70;;;;;;4946762;28;20203;-71
2022/05/26 08:16:09;;;;;;;3.00;2.37;;;19.20;98.60;;;;;;4948185;28;20676;-72
2022/05/26 08:18:35;;;;;;;2.40;2.20;;;19.20;99.00;;;;;;4947668;28;20224;-70
2022/05/26 08:21:14;;;;;;;2.47;2.10;;;19.30;99.20;;;;;;4948047;28;20266;-70
2022/05/26 08:23:41;;;;;;;3.70;2.30;;;19.40;99.30;;;;;;4944643;28;21220;-71
2022/05/26 08:26:06;;;;;;;3.47;2.10;;;19.50;98.90;;;;;;4949313;28;20439;-70
2022/05/26 08:28:32;;;;;;;2.43;2.23;;;19.60;99.00;;;;;;4948184;28;20462;-71
2022/05/26 08:30:59;;;;;;;8.20;2.23;;;19.60;98.60;;;;;;4943230;28;20187;-71
2022/05/26 08:33:26;;;;;;;3.93;2.30;;;19.50;98.40;;;;;;4945253;28;20517;-70
2022/05/26 08:36:03;;;;;;;4.80;2.00;;;19.40;98.30;;;;;;4944903;28;20451;-71
2022/05/26 08:38:29;;;;;;;6.80;2.03;;;19.40;98.50;;;;;;4944868;28;20470;-70
2022/05/26 08:40:54;;;;;;;9.00;3.10;;;19.50;98.60;;;;;;4944777;28;20460;-70
2022/05/26 08:43:24;;;;;;;3.03;2.10;;;19.60;98.90;;;;;;4940372;28;20255;-68
2022/05/26 08:45:51;;;;;;;5.53;2.43;;;19.50;99.10;;;;;;4944111;28;20390;-72
2022/05/26 08:48:41;;;;;;;3.00;2.40;;;19.70;98.50;;;;;;4945363;28;20458;-70
2022/05/26 08:51:12;;;;;;;4.90;2.60;;;19.60;98.60;;;;;;4944956;28;20496;-74
2022/05/26 08:53:40;;;;;;;2.30;2.10;;;19.60;98.80;;;;;;4945345;28;20497;-74
2022/05/26 08:56:11;;;;;;;3.07;2.47;;;19.70;98.70;;;;;;4946501;28;20498;-74
2022/05/26 08:58:46;;;;;;;3.70;2.57;;;19.60;98.60;;;;;;4945289;28;21217;-73
2022/05/26 09:01:18;;;;;;;4.27;2.33;;;19.50;99.10;;;;;;4940684;28;20544;-76
2022/05/26 09:03:44;;;;;;;6.13;2.47;;;19.70;99.30;;;;;;4942228;28;20928;-73
2022/05/26 09:06:14;;;;;;;4.17;2.10;;;19.80;99.20;;;;;;4944510;28;20443;-74
2022/05/26 09:14:33;;;;;;;6.07;2.43;;;19.90;98.80;;;;;;4942156;28;20921;-73
2022/05/26 09:17:18;;;;;;;6.30;2.57;;;19.80;98.70;;;;;;4944381;28;20557;-73
2022/05/26 09:19:44;;;;;;;2.83;2.10;;;19.80;98.90;;;;;;4943580;28;20868;-68
2022/05/26 09:22:27;;;;;;;3.73;2.37;;;19.80;98.60;;;;;;4944122;28;20466;-68
2022/05/26 09:24:53;;;;;;;5.20;2.33;;;19.90;99.10;;;;;;4941657;28;20226;-68
2022/05/26 09:27:31;;;;;;;5.00;2.43;;;19.80;98.50;;;;;;4941307;28;20867;-68
2022/05/26 09:30:15;;;;;;;3.03;2.50;;;19.60;99.20;;;;;;4939241;28;20182;-69
2022/05/26 09:32:41;;;;;;;3.90;2.70;;;19.70;98.90;;;;;;4941949;28;20743;-68
2022/05/26 09:35:28;;;;;;;2.90;2.23;;;19.50;99.10;;;;;;4943708;28;20516;-68
2022/05/26 09:37:57;;;;;;;5.87;2.63;;;19.50;99.30;;;;;;4944561;28;20473;-68
2022/05/26 09:40:32;;;;;;;4.93;2.70;;;19.60;99.50;;;;;;4942636;28;20447;-69
2022/05/26 09:43:15;;;;;;;4.47;2.80;;;19.50;99.10;;;;;;4944022;28;20454;-69
2022/05/26 09:45:47;;;;;;;4.83;2.57;;;19.50;99.30;;;;;;4944420;28;20469;-68
2022/05/26 09:48:26;;;;;;;3.03;2.30;;;19.40;99.60;;;;;;4945515;28;20458;-68
2022/05/26 09:51:03;;;;;;;3.83;2.50;;;19.30;99.80;;;;;;4946189;28;20494;-68
2022/05/26 09:53:44;;;;;;;5.20;2.80;;;19.30;99.90;;;;;;4943218;28;20454;-69
2022/05/26 09:56:33;;;;;;;4.60;2.63;;;19.40;99.90;;;;;;4941122;28;20450;-68
2022/05/26 09:58:59;;;;;;;2.77;2.40;;;19.40;99.90;;;;;;4939281;28;20454;-69
2022/05/26 10:01:27;;;;;;;3.73;2.40;;;19.30;99.90;;;;;;4944897;28;20948;-69
2022/05/26 10:03:57;;;;;;;3.73;2.53;;;19.40;99.90;;;;;;4941174;28;20492;-68
2022/05/26 10:06:30;;;;;;;2.80;2.50;;;19.40;99.90;;;;;;4942534;28;20446;-68
2022/05/26 10:09:00;;;;;;;3.23;2.40;;;19.40;99.90;;;;;;4943127;28;20588;-68
2022/05/26 10:11:55;;;;;;;3.57;2.50;;;19.30;99.90;;;;;;4944126;28;20443;-68
2022/05/26 10:14:48;;;;;;;3.37;2.87;;;19.20;99.90;;;;;;4941869;28;20431;-68
2022/05/26 10:17:35;;;;;;;5.73;2.60;;;19.20;99.90;;;;;;4941394;28;20482;-67
2022/05/26 10:20:33;;;;;;;5.83;2.50;;;19.20;99.90;;;;;;4942897;28;20517;-67
2022/05/26 10:23:08;;;;;;;3.53;2.20;;;19.10;99.90;;;;;;4899226;28;20986;-67
2022/05/26 10:25:54;;;;;;;4.63;2.30;;;19.20;99.90;;;;;;4935796;28;20444;-67
2022/05/26 10:28:39;;;;;;;4.80;2.77;;;19.30;99.90;;;;;;4938394;28;20546;-68
2022/05/26 10:31:25;;;;;;;3.17;2.40;;;19.40;99.90;;;;;;4948893;28;20443;-68
2022/05/26 10:33:54;;;;;;;4.87;2.90;;;19.50;99.90;;;;;;4950883;28;20442;-68
2022/05/26 10:36:45;;;;;;;6.43;2.63;;;19.30;99.90;;;;;;4951302;28;20445;-68
2022/05/26 10:39:29;;;;;;;2.87;2.67;;;19.40;99.90;;;;;;4950559;28;20549;-67
2022/05/26 10:42:45;;;;;;;2.53;2.33;;;19.60;99.90;;;;;;4949752;28;21030;-67
2022/05/26 10:45:17;;;;;;;3.33;2.50;;;19.80;99.90;;;;;;4933106;28;20446;-68
2022/05/26 10:47:48;;;;;;;2.93;2.60;;;19.80;99.90;;;;;;4951578;28;20458;-69
2022/05/26 10:50:47;;;;;;;3.10;2.80;;;20.00;99.90;;;;;;4947506;28;20447;-69
2022/05/26 10:53:36;;;;;;;5.10;2.50;;;20.10;99.90;;;;;;4927894;28;20438;-69
2022/05/26 10:56:31;;;;;;;2.53;2.33;;;20.20;99.90;;;;;;4942856;28;20815;-68
2022/05/26 10:59:05;;;;;;;3.30;2.93;;;20.40;99.90;;;;;;4948063;28;20815;-69
2022/05/26 11:01:45;;;;;;;7.27;2.90;;;20.40;99.90;;;;;;4952026;28;20438;-68
2022/05/26 11:04:46;;;;;;;5.33;2.90;;;20.60;99.90;;;;;;4946777;28;20434;-68
2022/05/26 11:07:40;;;;;;;4.30;2.50;;;20.50;99.90;;;;;;4937115;28;20524;-68
2022/05/26 11:10:28;;;;;;;3.43;2.30;;;20.40;99.90;;;;;;4951019;28;21133;-68
2022/05/26 11:13:05;;;;;;;2.30;2.10;;;20.60;99.70;;;;;;4948874;28;20445;-68
2022/05/26 11:18:48;;;;;;;2.53;2.33;;;20.90;99.20;;;;;;4949545;28;20497;-68
2022/05/26 11:21:18;;;;;;;4.47;2.40;;;21.10;99.20;;;;;;4952439;28;20426;-67
2022/05/26 11:23:44;;;;;;;3.60;2.30;;;21.10;98.70;;;;;;4949670;28;20434;-68
2022/05/26 11:26:37;;;;;;;3.07;2.20;;;21.00;98.90;;;;;;4952835;28;20430;-68
2022/05/26 11:29:47;;;;;;;5.20;2.70;;;21.40;98.40;;;;;;4952475;28;20175;-68
2022/05/26 11:38:30;;;;;;;6.63;2.40;;;21.80;97.60;;;;;;4944114;28;20469;-67
2022/05/26 11:41:06;;;;;;;3.13;2.17;;;21.80;97.10;;;;;;4949269;28;20495;-67
2022/05/26 11:43:33;;;;;;;3.57;2.50;;;21.60;97.30;;;;;;4946623;28;20466;-68
2022/05/26 11:45:59;;;;;;;3.63;2.30;;;21.30;97.20;;;;;;4948783;28;20501;-67
2022/05/26 11:48:31;;;;;;;3.63;2.90;;;20.80;97.40;;;;;;4950005;28;20457;-67
2022/05/26 11:51:19;;;;;;;3.30;2.40;;;20.60;98.10;;;;;;4950072;28;20791;-69
2022/05/26 11:53:46;;;;;;;3.23;2.80;;;20.50;97.90;;;;;;4946209;28;20423;-69
2022/05/26 11:56:35;;;;;;;2.97;2.50;;;20.40;98.10;;;;;;4948541;28;20881;-68
2022/05/26 11:59:20;;;;;;;2.80;2.60;;;20.40;98.10;;;;;;4951428;28;20482;-69
2022/05/26 12:02:06;;;;;;;3.70;2.40;;;20.40;98.00;;;;;;4948066;28;21126;-69
2022/05/26 12:04:38;;;;;;;3.00;2.43;;;20.60;98.40;;;;;;4932932;28;20471;-67
2022/05/26 12:07:25;;;;;;;4.27;2.40;;;20.90;98.20;;;;;;4948041;28;20462;-68
2022/05/26 12:09:57;;;;;;;3.10;2.40;;;21.40;98.10;;;;;;4947894;28;21187;-67
2022/05/26 12:12:22;;;;;;;3.73;2.40;;;22.50;97.50;;;;;;4948947;28;20441;-67
2022/05/26 12:14:50;;;;;;;3.73;2.70;;;23.40;96.10;;;;;;4946506;28;20813;-68
2022/05/26 12:17:30;;;;;;;2.67;2.17;;;24.50;92.50;;;;;;4945272;28;20231;-68
2022/05/26 12:20:10;;;;;;;2.73;2.20;;;23.90;90.10;;;;;;4944527;28;20501;-67
2022/05/26 12:22:37;;;;;;;3.47;2.30;;;23.50;91.00;;;;;;4941071;28;20609;-68
2022/05/26 12:25:14;;;;;;;3.27;2.40;;;24.20;91.20;;;;;;4943693;28;20532;-67
2022/05/26 12:27:54;;;;;;;3.10;2.37;;;25.20;89.40;;;;;;4944668;28;20489;-67
2022/05/26 12:30:31;;;;;;;2.53;2.27;;;26.00;88.30;;;;;;4940147;28;20952;-68
2022/05/26 12:33:01;;;;;;;3.77;2.43;;;25.80;82.90;;;;;;4943462;28;20477;-70
2022/05/26 12:35:33;;;;;;;3.07;2.20;;;25.00;85.40;;;;;;4944105;28;20678;-67
2022/05/26 12:38:17;;;;;;;2.80;2.10;;;24.00;85.40;;;;;;4945726;28;20470;-65
2022/05/26 12:41:05;;;;;;;6.13;2.30;;;23.20;86.40;;;;;;4944360;28;20448;-64
2022/05/26 12:43:59;;;;;;;2.40;2.20;;;22.50;89.40;;;;;;4942947;28;20497;-67
2022/05/26 12:46:39;;;;;;;3.00;2.30;;;22.00;90.50;;;;;;4944943;28;20435;-69
2022/05/26 12:49:12;;;;;;;2.53;2.33;;;21.90;91.30;;;;;;4945456;28;20493;-69
2022/05/26 12:51:39;;;;;;;3.33;2.33;;;21.70;91.70;;;;;;4944015;28;20474;-68
2022/05/26 12:54:10;;;;;;;3.70;2.47;;;21.70;92.70;;;;;;4943965;28;20443;-69
2022/05/26 12:56:36;;;;;;;3.63;2.50;;;21.80;92.70;;;;;;4943647;28;20497;-68
2022/05/26 12:59:03;;;;;;;2.57;2.33;;;22.10;92.50;;;;;;4947435;28;20442;-68
2022/05/26 13:01:30;;;;;;;2.67;2.33;;;22.80;92.80;;;;;;4948071;28;20194;-69
2022/05/26 13:04:06;;;;;;;5.13;4.00;;;23.30;91.20;;;;;;4946009;28;20438;-69
2022/05/26 13:06:38;;;;;;;3.60;3.07;;;23.60;90.40;;;;;;4945198;28;20876;-70
2022/05/26 13:09:21;;;;;;;3.90;3.27;;;23.90;89.80;;;;;;4937085;28;20458;-66
2022/05/26 13:12:01;;;;;;;2.63;2.33;;;23.40;89.20;;;;;;4947296;28;20490;-71
2022/05/26 13:14:50;;;;;;;4.90;2.10;;;23.50;88.90;;;;;;4945609;28;21161;-72
2022/05/26 13:17:24;;;;;;;2.80;2.60;;;23.10;88.60;;;;;;4935615;28;20459;-69
2022/05/26 13:19:54;;;;;;;3.60;2.40;;;23.40;89.00;;;;;;4945794;28;20438;-69
2022/05/26 13:22:38;;;;;;;2.83;2.10;;;24.20;87.40;;;;;;4940345;28;20983;-69
2022/05/26 13:25:15;;;;;;;2.87;2.57;;;25.20;85.10;;;;;;4944801;28;20442;-68
2022/05/26 13:27:54;;;;;;;3.70;2.67;;;25.80;81.30;;;;;;4946508;28;20867;-68
2022/05/26 13:33:17;;;;;;;3.00;2.37;;;25.60;78.60;;;;;;4939879;28;20489;-70
2022/05/26 13:35:50;;;;;;;3.70;2.40;;;26.70;79.20;;;;;;4946881;28;20426;-70
2022/05/26 13:38:46;;;;;;;2.93;2.63;;;30.20;70.00;;;;;;4943991;28;21214;-71
2022/05/26 13:41:22;;;;;;;2.83;2.37;;;32.40;59.90;;;;;;4939770;28;20578;-69
2022/05/26 13:43:48;;;;;;;4.30;2.17;;;32.50;56.20;;;;;;4940267;28;20815;-71
2022/05/26 13:46:23;;;;;;;2.20;2.00;;;32.70;52.70;;;;;;4941169;28;20432;-71
2022/05/26 13:48:54;;;;;;;2.47;2.27;;;32.60;52.20;;;;;;4942507;28;20445;-70
2022/05/26 13:51:28;;;;;;;2.50;2.30;;;32.00;50.40;;;;;;4940217;28;20439;-70
2022/05/26 13:54:12;;;;;;;5.73;2.20;;;32.30;50.50;;;;;;4941214;28;20826;-73
2022/05/26 13:56:38;;;;;;;2.73;2.40;;;33.40;48.80;;;;;;4940628;28;20501;-72
2022/05/26 13:59:09;;;;;;;2.60;2.40;;;33.80;48.60;;;;;;4941991;28;20435;-72